Time;durP1;ratioP1;P1;durP2;ratioP2;P2;SDS_P1;SDS_P2;PMS_P1;PMS_P2;Temp;Humidity;BMP_temperature;BMP_pressure;BME280_temperature;BME280_humidity;BME280_pressure;Samples;Min_cycle;Max_cycle;Signal;HPM_P1;HPM_P2
2022/03/30 00:01:56;;;;;;;11.38;6.28;;;15.00;59.90;;;;;;5011853;28;20058;-76
2022/03/30 00:04:22;;;;;;;14.63;6.93;;;15.00;59.30;;;;;;5019004;28;20034;-75
2022/03/30 00:06:48;;;;;;;12.75;6.22;;;15.00;59.20;;;;;;5018986;28;20050;-76
2022/03/30 00:09:14;;;;;;;11.60;6.25;;;14.90;59.20;;;;;;5019106;28;20045;-76
2022/03/30 00:11:39;;;;;;;14.38;7.13;;;14.90;59.20;;;;;;5001676;28;20045;-76
2022/03/30 00:14:05;;;;;;;12.48;6.10;;;14.90;59.30;;;;;;5018799;28;20042;-78
2022/03/30 00:16:33;;;;;;;15.80;7.50;;;14.90;59.30;;;;;;5015318;28;20065;-76
2022/03/30 00:18:59;;;;;;;10.20;6.47;;;14.90;59.30;;;;;;5002273;28;20097;-76
2022/03/30 00:21:25;;;;;;;13.93;7.15;;;14.90;59.30;;;;;;5019222;28;20081;-77
2022/03/30 00:23:52;;;;;;;12.75;7.28;;;14.90;59.40;;;;;;5018779;28;20056;-75
2022/03/30 00:26:18;;;;;;;16.23;7.30;;;14.90;59.30;;;;;;5018612;28;20057;-75
2022/03/30 00:28:44;;;;;;;11.63;6.72;;;14.80;59.40;;;;;;5018722;28;20046;-76
2022/03/30 00:31:11;;;;;;;14.07;7.05;;;14.80;59.30;;;;;;5016504;28;20080;-75
2022/03/30 00:33:37;;;;;;;10.07;6.63;;;14.80;59.40;;;;;;4999518;28;20046;-76
2022/03/30 00:36:03;;;;;;;13.52;7.40;;;14.70;59.30;;;;;;4998333;28;20466;-76
2022/03/30 00:38:29;;;;;;;11.93;7.20;;;14.70;59.40;;;;;;4980933;28;20124;-76
2022/03/30 00:40:55;;;;;;;11.70;6.88;;;14.70;59.50;;;;;;4997524;28;20076;-76
2022/03/30 00:43:21;;;;;;;18.13;7.40;;;14.70;59.50;;;;;;4997199;28;20105;-75
2022/03/30 00:45:47;;;;;;;11.23;6.57;;;14.70;59.40;;;;;;4997692;28;20132;-75
2022/03/30 00:48:13;;;;;;;13.48;7.07;;;14.70;59.40;;;;;;4980235;28;20086;-76
2022/03/30 00:50:39;;;;;;;14.30;7.65;;;14.70;59.40;;;;;;4997745;28;20043;-75
2022/03/30 00:53:05;;;;;;;11.23;7.55;;;14.70;59.50;;;;;;4997683;28;20050;-75
2022/03/30 00:55:31;;;;;;;13.93;8.05;;;14.70;59.50;;;;;;4980287;28;20053;-76
2022/03/30 00:57:58;;;;;;;13.57;6.88;;;14.70;59.50;;;;;;4997184;28;20366;-76
2022/03/30 01:00:25;;;;;;;12.20;7.03;;;14.70;59.50;;;;;;5001933;28;20053;-74
2022/03/30 01:02:51;;;;;;;11.85;6.63;;;14.70;59.60;;;;;;4982841;28;20054;-76
2022/03/30 01:05:17;;;;;;;15.93;7.97;;;14.70;59.70;;;;;;4980113;28;20050;-76
2022/03/30 01:07:44;;;;;;;12.48;7.10;;;14.60;59.70;;;;;;4996996;28;20092;-75
2022/03/30 01:10:12;;;;;;;16.38;8.23;;;14.60;59.70;;;;;;4997438;28;20062;-75
2022/03/30 01:12:41;;;;;;;15.32;8.05;;;14.50;59.80;;;;;;4996890;28;20050;-77
2022/03/30 01:15:10;;;;;;;14.27;7.70;;;14.50;60.00;;;;;;4996808;28;20053;-76
2022/03/30 01:17:37;;;;;;;12.02;7.05;;;14.50;60.00;;;;;;4997447;28;20050;-76
2022/03/30 01:20:04;;;;;;;12.63;6.85;;;14.40;60.30;;;;;;4963640;28;20055;-75
2022/03/30 01:22:30;;;;;;;10.65;5.78;;;14.40;60.40;;;;;;4997021;28;20363;-76
2022/03/30 01:24:56;;;;;;;14.32;6.85;;;14.40;60.70;;;;;;4963826;28;20128;-75
2022/03/30 01:27:21;;;;;;;7.82;5.38;;;14.40;60.80;;;;;;4979755;28;20054;-76
2022/03/30 01:32:31;;;;;;;;;;;14.30;61.00;;;;;;4980429;28;20401;-74
2022/03/30 01:34:59;;;;;;;9.40;4.45;;;14.30;60.90;;;;;;4980078;28;19921;-76
2022/03/30 01:37:28;;;;;;;8.60;3.97;;;14.30;61.10;;;;;;4957913;28;1128568;-76
2022/03/30 01:40:01;;;;;;;6.35;3.65;;;14.30;61.20;;;;;;4997705;28;20057;-75
2022/03/30 01:42:28;;;;;;;7.05;3.75;;;14.30;61.30;;;;;;4980765;28;20050;-76
2022/03/30 01:44:54;;;;;;;6.85;4.05;;;14.20;61.20;;;;;;4997337;28;20051;-76
2022/03/30 01:47:20;;;;;;;7.50;3.83;;;14.20;61.40;;;;;;4997578;28;20038;-76
2022/03/30 01:49:46;;;;;;;6.85;2.72;;;14.20;61.50;;;;;;4997608;28;20082;-74
2022/03/30 01:52:15;;;;;;;5.45;2.58;;;14.20;61.50;;;;;;4980269;28;20062;-75
2022/03/30 01:54:42;;;;;;;6.30;2.75;;;14.10;61.80;;;;;;4997300;28;20430;-75
2022/03/30 01:57:12;;;;;;;5.78;2.72;;;14.10;61.80;;;;;;4997614;28;20125;-76
2022/03/30 01:59:38;;;;;;;5.97;2.70;;;14.10;61.80;;;;;;4980543;28;20125;-75
2022/03/30 02:02:04;;;;;;;4.57;2.20;;;14.10;61.80;;;;;;4989275;28;20049;-75
2022/03/30 02:04:31;;;;;;;5.55;2.50;;;14.10;61.90;;;;;;5016740;28;20061;-76
2022/03/30 02:06:57;;;;;;;3.75;1.90;;;14.00;61.80;;;;;;4999934;28;20061;-75
2022/03/30 02:09:23;;;;;;;4.93;2.05;;;14.00;61.90;;;;;;5000283;28;20438;-75
2022/03/30 02:11:50;;;;;;;3.53;1.73;;;14.00;61.80;;;;;;5016578;28;20100;-76
2022/03/30 02:14:16;;;;;;;5.38;1.75;;;14.00;62.00;;;;;;5000237;28;20412;-75
2022/03/30 02:16:42;;;;;;;3.25;1.50;;;13.90;61.80;;;;;;4982813;28;20088;-76
2022/03/30 02:19:07;;;;;;;2.75;1.15;;;13.80;61.80;;;;;;5016021;28;20058;-76
2022/03/30 02:21:34;;;;;;;4.75;1.40;;;13.80;61.90;;;;;;4999349;28;20088;-76
2022/03/30 02:24:00;;;;;;;3.95;1.23;;;13.80;62.00;;;;;;5016246;28;20057;-74
2022/03/30 02:26:27;;;;;;;2.88;1.10;;;13.90;62.00;;;;;;5016361;28;20123;-75
2022/03/30 02:28:54;;;;;;;3.88;1.35;;;13.80;61.90;;;;;;5007379;28;20050;-75
2022/03/30 02:31:23;;;;;;;2.90;0.80;;;13.70;61.90;;;;;;4996870;28;20087;-74
2022/03/30 02:33:50;;;;;;;2.90;1.00;;;13.70;61.90;;;;;;4997000;28;20065;-75
2022/03/30 02:36:16;;;;;;;2.58;0.80;;;13.70;61.80;;;;;;4996868;28;20454;-75
2022/03/30 02:38:42;;;;;;;1.40;0.50;;;13.70;61.80;;;;;;4979119;28;20058;-76
2022/03/30 02:41:09;;;;;;;2.67;0.90;;;13.70;61.80;;;;;;4996227;28;20055;-76
2022/03/30 02:43:35;;;;;;;1.27;0.80;;;13.70;61.90;;;;;;4996644;28;20046;-76
2022/03/30 02:46:01;;;;;;;2.90;0.63;;;13.70;61.80;;;;;;4979482;28;20133;-76
2022/03/30 02:48:32;;;;;;;2.42;0.68;;;13.60;61.90;;;;;;4997088;28;20077;-77
2022/03/30 02:51:02;;;;;;;2.17;0.70;;;13.60;62.00;;;;;;4996114;28;20061;-77
2022/03/30 02:53:29;;;;;;;2.78;0.60;;;13.60;61.80;;;;;;4995898;28;20058;-74
2022/03/30 02:55:56;;;;;;;1.73;0.30;;;13.50;61.80;;;;;;4996491;28;20092;-76
2022/03/30 02:58:22;;;;;;;3.17;0.60;;;13.50;61.70;;;;;;4999615;28;20050;-76
2022/03/30 03:00:49;;;;;;;1.17;0.47;;;13.50;61.70;;;;;;5015329;28;20343;-77
2022/03/30 03:03:15;;;;;;;2.20;0.30;;;13.50;61.70;;;;;;5015357;28;20104;-75
2022/03/30 03:05:42;;;;;;;1.23;0.30;;;13.50;61.70;;;;;;5015501;28;20425;-76
2022/03/30 03:08:10;;;;;;;2.25;0.40;;;13.50;61.80;;;;;;4998416;28;20067;-76
2022/03/30 03:10:38;;;;;;;1.27;0.38;;;13.50;61.80;;;;;;4999257;28;20079;-76
2022/03/30 03:13:04;;;;;;;2.63;0.40;;;13.50;61.70;;;;;;5016016;28;20046;-77
2022/03/30 03:15:32;;;;;;;1.00;0.32;;;13.50;61.70;;;;;;4998616;28;20089;-76
2022/03/30 03:17:58;;;;;;;3.22;0.35;;;13.50;61.60;;;;;;5015562;28;20050;-76
2022/03/30 03:20:24;;;;;;;1.75;0.50;;;13.50;61.50;;;;;;5015338;28;20396;-75
2022/03/30 03:22:50;;;;;;;1.88;0.43;;;13.50;61.50;;;;;;5015784;28;20445;-75
2022/03/30 03:25:16;;;;;;;1.95;0.35;;;13.40;61.40;;;;;;5015440;28;20049;-74
2022/03/30 03:27:42;;;;;;;1.00;0.20;;;13.50;61.70;;;;;;5014219;28;20420;-77
2022/03/30 03:30:09;;;;;;;1.77;0.55;;;13.50;61.60;;;;;;4995930;28;20061;-76
2022/03/30 03:32:35;;;;;;;1.00;0.38;;;13.40;61.50;;;;;;4995926;28;20472;-75
2022/03/30 03:35:01;;;;;;;2.22;0.20;;;13.50;61.70;;;;;;4979506;28;20050;-76
2022/03/30 03:37:27;;;;;;;2.00;0.20;;;13.50;61.70;;;;;;4978580;28;20058;-74
2022/03/30 03:39:52;;;;;;;2.33;0.20;;;13.40;61.60;;;;;;4995579;28;20064;-75
2022/03/30 03:42:18;;;;;;;3.00;0.35;;;13.40;61.60;;;;;;4995717;28;20042;-76
2022/03/30 03:44:44;;;;;;;1.45;0.30;;;13.50;62.40;;;;;;4996341;28;20055;-77
2022/03/30 03:47:10;;;;;;;0.80;0.20;;;13.40;61.50;;;;;;4996342;28;20426;-76
2022/03/30 03:49:36;;;;;;;0.88;0.20;;;13.50;61.60;;;;;;4995419;28;20057;-77
2022/03/30 03:52:03;;;;;;;0.85;0.20;;;13.50;61.50;;;;;;4995857;28;20430;-76
2022/03/30 03:54:29;;;;;;;1.15;0.20;;;13.50;61.40;;;;;;4995331;28;20454;-75
2022/03/30 03:56:54;;;;;;;0.95;0.30;;;13.50;61.40;;;;;;4978746;28;20050;-74
2022/03/30 03:59:20;;;;;;;0.80;0.20;;;13.40;61.20;;;;;;4994332;28;20402;-75
2022/03/30 04:01:46;;;;;;;1.05;0.25;;;13.40;61.30;;;;;;5007297;28;20108;-76
2022/03/30 04:04:11;;;;;;;0.93;0.20;;;13.40;61.40;;;;;;4995332;28;20046;-75
2022/03/30 04:06:37;;;;;;;1.52;0.28;;;13.50;61.30;;;;;;4978083;28;20129;-76
2022/03/30 04:09:03;;;;;;;1.85;0.30;;;13.50;61.30;;;;;;4978848;28;20054;-75
2022/03/30 04:11:29;;;;;;;2.70;0.30;;;13.50;61.20;;;;;;4995611;28;20046;-75
2022/03/30 04:13:55;;;;;;;3.30;0.30;;;13.50;61.00;;;;;;4995675;28;20050;-74
2022/03/30 04:16:21;;;;;;;1.33;0.38;;;13.50;61.00;;;;;;4995530;28;20458;-75
2022/03/30 04:18:47;;;;;;;0.82;0.17;;;13.50;61.00;;;;;;4995125;28;20049;-75
2022/03/30 04:21:12;;;;;;;2.03;0.50;;;13.40;60.80;;;;;;4978095;28;20057;-77
2022/03/30 04:23:38;;;;;;;0.93;0.20;;;13.40;61.00;;;;;;4995547;28;20056;-75
2022/03/30 04:26:04;;;;;;;1.85;0.20;;;13.40;61.10;;;;;;4978200;28;20042;-77
2022/03/30 04:28:30;;;;;;;0.70;0.20;;;13.40;60.80;;;;;;4978388;28;20545;-74
2022/03/30 04:30:56;;;;;;;2.30;0.40;;;13.40;60.80;;;;;;4994905;28;20050;-75
2022/03/30 04:33:22;;;;;;;5.05;0.30;;;13.50;61.30;;;;;;4995126;28;20442;-73
2022/03/30 04:35:48;;;;;;;1.13;0.20;;;13.60;61.40;;;;;;4995191;28;20053;-74
2022/03/30 04:38:14;;;;;;;1.67;0.50;;;13.60;60.70;;;;;;4995364;28;20363;-73
2022/03/30 04:40:40;;;;;;;2.42;0.40;;;13.70;59.70;;;;;;4995604;28;20101;-74
2022/03/30 04:43:06;;;;;;;3.35;0.50;;;13.80;58.90;;;;;;4999003;28;20065;-72
2022/03/30 04:45:32;;;;;;;6.78;1.02;;;13.90;58.30;;;;;;4981600;28;20061;-75
2022/03/30 04:47:58;;;;;;;2.88;0.47;;;13.90;57.60;;;;;;4998567;28;20058;-73
2022/03/30 04:50:24;;;;;;;2.60;0.50;;;14.00;57.10;;;;;;4998832;28;20046;-72
2022/03/30 04:52:51;;;;;;;1.58;0.40;;;14.00;56.70;;;;;;4998275;28;20370;-76
2022/03/30 04:55:16;;;;;;;1.23;0.30;;;14.00;56.40;;;;;;4998633;28;20093;-75
2022/03/30 04:57:51;;;;;;;3.45;0.52;;;14.00;56.80;;;;;;4982036;28;20042;-77
2022/03/30 05:00:16;;;;;;;1.42;0.40;;;14.10;58.70;;;;;;4998272;28;20048;-77
2022/03/30 05:02:43;;;;;;;3.13;0.40;;;14.20;57.80;;;;;;4998108;28;20034;-77
2022/03/30 05:05:09;;;;;;;5.18;0.45;;;14.30;57.50;;;;;;4981889;28;20453;-71
2022/03/30 05:07:36;;;;;;;2.72;0.30;;;14.60;57.70;;;;;;4998323;28;20057;-75
2022/03/30 05:10:02;;;;;;;1.05;0.32;;;14.80;57.70;;;;;;4981428;28;20084;-76
2022/03/30 05:12:31;;;;;;;2.58;0.45;;;15.10;57.60;;;;;;4998266;28;20054;-77
2022/03/30 05:15:00;;;;;;;3.78;0.47;;;15.30;57.60;;;;;;4998024;28;20409;-78
2022/03/30 05:17:26;;;;;;;7.63;0.50;;;15.50;57.40;;;;;;4981158;28;20188;-76
2022/03/30 05:19:52;;;;;;;4.75;0.73;;;15.20;55.40;;;;;;4980708;28;20472;-75
2022/03/30 05:22:17;;;;;;;3.40;0.43;;;15.20;57.90;;;;;;4998028;28;20038;-74
2022/03/30 05:24:43;;;;;;;2.75;0.35;;;15.30;58.30;;;;;;4981062;28;20086;-76
2022/03/30 05:27:11;;;;;;;6.97;0.40;;;15.50;58.60;;;;;;4980249;28;20058;-70
2022/03/30 05:29:37;;;;;;;4.63;0.52;;;15.60;58.60;;;;;;4980123;28;20044;-79
2022/03/30 05:32:04;;;;;;;3.15;0.43;;;15.70;58.90;;;;;;4997861;28;20050;-78
2022/03/30 05:34:29;;;;;;;9.32;0.82;;;15.70;59.20;;;;;;4997859;28;20058;-75
2022/03/30 05:36:57;;;;;;;8.85;1.10;;;15.80;59.50;;;;;;4997610;28;20042;-77
2022/03/30 05:39:22;;;;;;;4.53;1.25;;;15.90;59.70;;;;;;4997759;28;20470;-77
2022/03/30 05:41:48;;;;;;;3.95;0.30;;;16.00;59.80;;;;;;4997148;28;20060;-77
2022/03/30 05:44:14;;;;;;;7.00;1.05;;;16.00;59.80;;;;;;4980046;28;20077;-78
2022/03/30 05:46:39;;;;;;;6.60;0.77;;;16.10;59.90;;;;;;4962030;28;20124;-77
2022/03/30 05:49:06;;;;;;;4.50;0.43;;;16.30;59.60;;;;;;4979463;28;20060;-78
2022/03/30 05:51:32;;;;;;;17.98;1.45;;;16.40;59.00;;;;;;4980095;28;20466;-77
2022/03/30 05:53:58;;;;;;;5.63;0.60;;;16.50;58.70;;;;;;4996422;28;20073;-78
2022/03/30 05:59:15;;;;;;;6.57;0.50;;;16.70;58.80;;;;;;4997046;28;20046;-78
2022/03/30 06:01:42;;;;;;;10.73;0.70;;;16.70;58.60;;;;;;4981320;28;20038;-78
2022/03/30 06:04:07;;;;;;;8.73;0.50;;;16.80;58.50;;;;;;4997265;28;20052;-78
2022/03/30 06:06:34;;;;;;;14.15;1.05;;;16.60;57.90;;;;;;4997366;28;20501;-77
2022/03/30 06:09:07;;;;;;;11.15;1.30;;;16.70;58.10;;;;;;4979763;28;20369;-78
2022/03/30 06:11:33;;;;;;;6.85;0.70;;;16.80;58.40;;;;;;4979563;28;20335;-75
2022/03/30 06:13:59;;;;;;;10.95;1.05;;;16.80;58.10;;;;;;4997037;28;20050;-78
2022/03/30 06:16:26;;;;;;;5.93;0.57;;;16.80;57.70;;;;;;4979665;28;20046;-78
2022/03/30 06:18:52;;;;;;;6.80;0.68;;;16.80;57.10;;;;;;4997076;28;20054;-77
2022/03/30 06:21:18;;;;;;;3.42;0.70;;;16.80;57.00;;;;;;4997102;28;20054;-79
2022/03/30 06:23:44;;;;;;;9.38;0.82;;;16.70;56.90;;;;;;4996553;28;20502;-76
2022/03/30 06:26:10;;;;;;;3.65;0.80;;;16.70;56.90;;;;;;4979624;28;20098;-77
2022/03/30 06:28:36;;;;;;;3.90;0.52;;;16.70;56.90;;;;;;4980333;28;20160;-77
2022/03/30 06:31:02;;;;;;;3.08;0.52;;;16.60;57.00;;;;;;4997019;28;20355;-77
2022/03/30 06:33:28;;;;;;;2.78;0.30;;;16.50;56.90;;;;;;4980945;28;20093;-77
2022/03/30 06:35:53;;;;;;;5.38;0.50;;;16.50;57.00;;;;;;4979582;28;20108;-77
2022/03/30 06:38:19;;;;;;;4.32;0.40;;;16.40;57.10;;;;;;4979154;28;20082;-78
2022/03/30 06:40:46;;;;;;;3.80;0.40;;;16.40;57.10;;;;;;4996554;28;20058;-77
2022/03/30 06:43:13;;;;;;;1.77;0.40;;;16.30;57.10;;;;;;4996409;28;20082;-77
2022/03/30 06:45:39;;;;;;;3.83;0.50;;;16.30;57.20;;;;;;5011057;28;20042;-77
2022/03/30 06:48:05;;;;;;;5.57;0.50;;;16.30;57.30;;;;;;5016207;28;20060;-76
2022/03/30 06:50:32;;;;;;;6.25;0.82;;;16.20;57.30;;;;;;4998332;28;20084;-78
2022/03/30 06:53:00;;;;;;;3.42;0.30;;;16.20;57.40;;;;;;4998942;28;20053;-76
2022/03/30 06:55:26;;;;;;;3.90;0.38;;;16.30;57.40;;;;;;5015708;28;20111;-78
2022/03/30 06:57:52;;;;;;;1.75;0.30;;;16.30;57.50;;;;;;4998649;28;20393;-78
2022/03/30 07:00:18;;;;;;;2.40;0.22;;;16.30;57.40;;;;;;4982508;28;20461;-78
2022/03/30 07:02:44;;;;;;;2.33;0.30;;;16.30;57.40;;;;;;4998371;28;20041;-78
2022/03/30 07:05:11;;;;;;;2.40;0.47;;;16.30;57.50;;;;;;4998386;28;20104;-79
2022/03/30 07:10:23;;;;;;;1.67;0.30;;;16.30;57.60;;;;;;5013736;28;20052;-80
2022/03/30 07:12:50;;;;;;;2.75;0.28;;;16.20;57.60;;;;;;4998465;28;20073;-79
2022/03/30 07:15:17;;;;;;;3.03;0.38;;;16.20;57.60;;;;;;4998009;28;20041;-83
2022/03/30 07:17:52;;;;;;;3.55;0.43;;;16.20;57.70;;;;;;4981270;28;20615;-80
2022/03/30 07:20:19;;;;;;;1.27;0.40;;;16.10;57.70;;;;;;4996557;28;20088;-79
2022/03/30 07:22:47;;;;;;;1.85;0.20;;;16.10;57.80;;;;;;4997827;28;20405;-80
2022/03/30 07:25:14;;;;;;;3.13;0.32;;;16.10;57.90;;;;;;4981689;28;20046;-82
2022/03/30 07:27:41;;;;;;;2.88;0.22;;;16.00;57.90;;;;;;5015607;28;20129;-81
2022/03/30 07:30:08;;;;;;;2.13;0.38;;;16.00;57.90;;;;;;4981633;28;20081;-83
2022/03/30 07:32:39;;;;;;;3.22;0.22;;;15.90;57.90;;;;;;5011838;28;20467;-82
2022/03/30 07:35:09;;;;;;;0.85;0.30;;;15.90;58.00;;;;;;5015448;28;20042;-80
2022/03/30 07:37:36;;;;;;;3.42;0.30;;;15.90;58.10;;;;;;4993751;28;20054;-80
2022/03/30 07:40:04;;;;;;;2.20;0.50;;;15.90;58.10;;;;;;4978303;28;20046;-80
2022/03/30 07:42:30;;;;;;;1.83;0.13;;;15.90;58.20;;;;;;4975762;28;20057;-80
2022/03/30 07:44:56;;;;;;;1.45;0.40;;;15.80;58.20;;;;;;4995039;28;20038;-82
2022/03/30 07:47:22;;;;;;;2.72;0.30;;;15.80;58.30;;;;;;4978625;28;20046;-81
2022/03/30 07:49:48;;;;;;;1.63;0.20;;;15.80;58.30;;;;;;4962777;28;20465;-81
2022/03/30 07:52:15;;;;;;;1.25;0.30;;;15.80;58.30;;;;;;4962741;28;20426;-82
2022/03/30 07:54:41;;;;;;;2.20;0.50;;;15.70;58.30;;;;;;4995763;28;20125;-81
2022/03/30 07:57:08;;;;;;;1.70;0.40;;;15.70;58.30;;;;;;4978534;28;20426;-81
2022/03/30 07:59:34;;;;;;;2.22;0.30;;;15.70;58.40;;;;;;4962540;28;20068;-81
2022/03/30 08:02:00;;;;;;;1.58;0.30;;;15.70;58.40;;;;;;4983880;28;20450;-82
2022/03/30 08:04:26;;;;;;;1.85;0.28;;;15.70;58.50;;;;;;4998713;28;20401;-80
2022/03/30 08:06:52;;;;;;;2.75;0.32;;;15.60;58.50;;;;;;4981669;28;20428;-79
2022/03/30 08:09:18;;;;;;;2.88;0.30;;;15.60;58.50;;;;;;4998015;28;20100;-82
2022/03/30 08:11:44;;;;;;;1.17;0.25;;;15.60;58.60;;;;;;5015270;28;20441;-77
2022/03/30 08:14:11;;;;;;;1.70;0.30;;;15.60;58.60;;;;;;4995053;28;20089;-80
2022/03/30 08:16:37;;;;;;;1.17;0.17;;;15.60;58.60;;;;;;4984144;28;20049;-80
2022/03/30 08:19:03;;;;;;;2.25;0.35;;;15.60;58.80;;;;;;5001870;28;20050;-82
2022/03/30 08:24:12;;;;;;;;;;;15.50;58.70;;;;;;5019225;28;20089;-81
2022/03/30 08:26:39;;;;;;;1.80;0.50;;;15.50;58.50;;;;;;5018801;28;19976;-82
2022/03/30 08:29:08;;;;;;;1.95;0.20;;;15.50;59.00;;;;;;4985885;28;20128;-81
2022/03/30 08:31:34;;;;;;;4.63;0.30;;;15.50;59.00;;;;;;5000724;28;20562;-81
2022/03/30 08:34:00;;;;;;;3.40;0.30;;;15.50;59.00;;;;;;4998828;28;20043;-80
2022/03/30 08:36:30;;;;;;;2.05;0.30;;;15.50;58.90;;;;;;4982086;28;20104;-80
2022/03/30 08:39:02;;;;;;;1.65;0.20;;;15.40;58.60;;;;;;4999107;28;20054;-82
2022/03/30 08:41:29;;;;;;;0.47;0.10;;;15.40;58.60;;;;;;4998881;28;20047;-79
2022/03/30 08:43:55;;;;;;;0.73;0.22;;;15.40;58.70;;;;;;4981891;28;20046;-80
2022/03/30 08:46:21;;;;;;;0.68;0.10;;;15.40;58.70;;;;;;4995584;28;20331;-80
2022/03/30 08:48:46;;;;;;;1.23;0.20;;;15.40;58.70;;;;;;4981884;28;20125;-79
2022/03/30 08:51:13;;;;;;;0.95;0.20;;;15.40;58.70;;;;;;4998900;28;20064;-81
2022/03/30 08:53:39;;;;;;;1.45;0.30;;;15.40;58.70;;;;;;4981097;28;20057;-79
2022/03/30 08:56:04;;;;;;;1.25;0.20;;;15.40;58.80;;;;;;4981133;28;20038;-80
2022/03/30 08:58:30;;;;;;;0.70;0.10;;;15.40;58.70;;;;;;4978188;28;20085;-82
2022/03/30 09:01:14;;;;;;;2.90;0.32;;;15.40;58.80;;;;;;4981360;28;20038;-81
2022/03/30 09:04:00;;;;;;;0.88;0.25;;;15.40;58.70;;;;;;4998254;28;20045;-81
2022/03/30 09:06:41;;;;;;;0.68;0.28;;;15.40;58.70;;;;;;5018121;28;20077;-78
2022/03/30 09:09:08;;;;;;;2.30;0.20;;;15.40;58.80;;;;;;5017221;28;20373;-81
2022/03/30 09:11:45;;;;;;;1.60;0.20;;;15.30;58.80;;;;;;4997651;28;20064;-83
2022/03/30 09:14:12;;;;;;;2.00;0.30;;;15.30;58.90;;;;;;5013116;28;20050;-81
2022/03/30 09:16:48;;;;;;;2.10;0.30;;;15.30;59.10;;;;;;5037388;28;20050;-80
2022/03/30 09:19:16;;;;;;;0.95;0.10;;;15.40;59.10;;;;;;5037037;28;20069;-80
2022/03/30 09:21:48;;;;;;;1.65;0.20;;;15.30;59.20;;;;;;5037430;28;20045;-76
2022/03/30 09:24:16;;;;;;;2.08;0.17;;;15.40;59.20;;;;;;5019761;28;20045;-76
2022/03/30 09:26:43;;;;;;;0.70;0.20;;;15.30;58.80;;;;;;5020556;28;20045;-76
2022/03/30 09:29:10;;;;;;;2.08;0.13;;;15.30;58.70;;;;;;5016529;28;20050;-78
2022/03/30 09:31:38;;;;;;;2.15;0.32;;;15.20;58.60;;;;;;4998843;28;20046;-74
2022/03/30 09:34:06;;;;;;;2.60;0.30;;;15.10;58.50;;;;;;4998878;28;20458;-77
2022/03/30 09:36:37;;;;;;;2.08;0.28;;;15.10;58.70;;;;;;5017767;28;20129;-76
2022/03/30 09:39:04;;;;;;;1.92;0.17;;;15.10;58.60;;;;;;5017293;28;20478;-77
2022/03/30 09:41:50;;;;;;;4.65;0.40;;;15.00;58.40;;;;;;5016864;28;20081;-80
2022/03/30 09:44:16;;;;;;;1.92;0.32;;;15.00;58.10;;;;;;5017317;28;20137;-78
2022/03/30 09:46:55;;;;;;;1.95;0.30;;;14.90;58.70;;;;;;5016891;28;20050;-79
2022/03/30 09:49:31;;;;;;;3.40;0.30;;;14.80;58.50;;;;;;5000051;28;20517;-77
2022/03/30 09:51:57;;;;;;;1.95;0.30;;;14.90;58.90;;;;;;5017327;28;20041;-76
2022/03/30 09:54:53;;;;;;;3.40;0.70;;;14.80;59.20;;;;;;5000033;28;20073;-76
2022/03/30 09:57:21;;;;;;;2.13;0.30;;;14.80;59.50;;;;;;5016649;28;20042;-78
2022/03/30 10:00:14;;;;;;;1.77;0.10;;;14.70;59.90;;;;;;4998530;28;20361;-76
2022/03/30 10:02:47;;;;;;;2.90;0.20;;;14.70;60.10;;;;;;4990131;28;20107;-79
2022/03/30 10:05:15;;;;;;;0.68;0.13;;;14.70;60.40;;;;;;4999867;28;20054;-79
2022/03/30 10:07:41;;;;;;;1.02;0.30;;;14.70;60.50;;;;;;4996413;28;20097;-77
2022/03/30 10:10:09;;;;;;;2.60;0.43;;;14.70;60.70;;;;;;4998528;28;20045;-77
2022/03/30 10:12:36;;;;;;;1.83;0.30;;;14.70;60.80;;;;;;5036411;28;20045;-79
2022/03/30 10:15:03;;;;;;;3.00;0.25;;;14.70;60.90;;;;;;5018994;28;20046;-75
2022/03/30 10:17:29;;;;;;;1.45;0.20;;;14.70;61.00;;;;;;4996916;28;20057;-77
2022/03/30 10:19:58;;;;;;;0.70;0.20;;;14.70;61.10;;;;;;4995003;28;20058;-75
2022/03/30 10:23:01;;;;;;;2.33;0.20;;;14.80;61.00;;;;;;4979941;28;20050;-78
2022/03/30 10:25:49;;;;;;;1.92;0.30;;;14.80;60.50;;;;;;4997067;28;20090;-76
2022/03/30 10:28:25;;;;;;;2.30;0.30;;;14.80;60.40;;;;;;4971817;28;20054;-78
2022/03/30 10:30:56;;;;;;;0.93;0.28;;;14.90;60.50;;;;;;4980268;28;20121;-76
2022/03/30 10:33:36;;;;;;;1.67;0.20;;;14.90;60.40;;;;;;4996989;28;20452;-76
2022/03/30 10:36:22;;;;;;;1.02;0.28;;;14.90;60.10;;;;;;4996794;28;20065;-78
2022/03/30 10:39:07;;;;;;;3.97;0.70;;;14.90;60.20;;;;;;4996666;28;20066;-78
2022/03/30 10:41:51;;;;;;;2.05;0.20;;;14.90;59.80;;;;;;4996532;28;20050;-77
2022/03/30 10:44:35;;;;;;;1.73;0.20;;;14.90;59.90;;;;;;5010533;28;20524;-78
2022/03/30 10:47:07;;;;;;;1.02;0.30;;;14.90;59.70;;;;;;4996313;28;20112;-78
2022/03/30 10:49:46;;;;;;;1.73;0.20;;;14.90;59.90;;;;;;4996437;28;20164;-78
2022/03/30 10:52:39;;;;;;;2.97;0.45;;;14.90;59.80;;;;;;4979110;28;20366;-78
2022/03/30 10:55:13;;;;;;;1.63;0.20;;;14.90;59.90;;;;;;4979656;28;20077;-77
2022/03/30 10:57:57;;;;;;;2.78;0.20;;;14.90;59.90;;;;;;4997720;28;20525;-77
2022/03/30 11:00:24;;;;;;;2.13;0.20;;;14.90;59.90;;;;;;5015899;28;20089;-77
2022/03/30 11:02:51;;;;;;;2.05;0.30;;;15.00;60.00;;;;;;5014969;28;20111;-77
2022/03/30 11:05:28;;;;;;;1.63;0.20;;;15.00;60.00;;;;;;5015725;28;20041;-76
2022/03/30 11:07:57;;;;;;;1.65;0.15;;;15.00;59.90;;;;;;5015342;28;20085;-80
2022/03/30 11:10:45;;;;;;;1.25;0.30;;;15.00;60.00;;;;;;4994797;28;20050;-80
2022/03/30 11:13:11;;;;;;;1.02;0.20;;;15.00;59.90;;;;;;4985062;28;20088;-78
2022/03/30 11:16:11;;;;;;;0.90;0.20;;;15.00;59.90;;;;;;4995479;28;20066;-78
2022/03/30 11:18:56;;;;;;;3.40;0.30;;;15.00;59.80;;;;;;4995393;28;20112;-76
2022/03/30 11:21:22;;;;;;;1.60;0.20;;;15.10;59.90;;;;;;4995587;28;20054;-77
2022/03/30 11:24:03;;;;;;;1.00;0.22;;;15.10;60.00;;;;;;4995793;28;20531;-78
2022/03/30 11:26:48;;;;;;;1.60;0.20;;;15.00;59.90;;;;;;4995756;28;20362;-77
2022/03/30 11:29:42;;;;;;;1.60;0.28;;;15.10;59.90;;;;;;4995122;28;20121;-77
2022/03/30 11:32:22;;;;;;;2.50;0.43;;;15.10;59.50;;;;;;4996068;28;20090;-76
2022/03/30 11:34:52;;;;;;;3.35;0.25;;;15.00;58.80;;;;;;4978711;28;20050;-73
2022/03/30 11:37:19;;;;;;;3.00;0.32;;;15.00;59.30;;;;;;4995255;28;20454;-76
2022/03/30 11:39:49;;;;;;;2.35;0.50;;;15.00;59.40;;;;;;4995589;28;20520;-79
2022/03/30 11:42:16;;;;;;;0.70;0.10;;;15.00;59.10;;;;;;4978874;28;20148;-79
2022/03/30 11:47:28;;;;;;;1.08;0.22;;;15.10;59.00;;;;;;5014782;28;20361;-77
2022/03/30 11:49:56;;;;;;;4.43;0.20;;;15.10;58.80;;;;;;5016370;28;20385;-78
2022/03/30 11:52:23;;;;;;;1.23;0.25;;;15.20;58.70;;;;;;5019365;28;20128;-78
2022/03/30 11:54:53;;;;;;;2.10;0.30;;;15.20;58.60;;;;;;5019471;28;20137;-77
2022/03/30 11:57:21;;;;;;;2.80;0.20;;;15.30;58.50;;;;;;5019328;28;20046;-79
2022/03/30 11:59:57;;;;;;;2.33;0.60;;;15.30;58.50;;;;;;4999834;28;20042;-79
2022/03/30 12:02:25;;;;;;;1.42;0.20;;;15.40;58.40;;;;;;5006476;28;20045;-79
2022/03/30 12:04:51;;;;;;;0.90;0.30;;;15.50;58.40;;;;;;4999605;28;20046;-79
2022/03/30 12:07:21;;;;;;;1.83;0.30;;;15.50;58.30;;;;;;4983204;28;20050;-79
2022/03/30 12:09:49;;;;;;;2.97;0.17;;;15.60;58.20;;;;;;4982993;28;20160;-79
2022/03/30 12:12:35;;;;;;;1.75;0.22;;;15.60;58.20;;;;;;4999194;28;20054;-79
2022/03/30 12:15:06;;;;;;;1.30;0.38;;;15.60;58.10;;;;;;4999320;28;20043;-77
2022/03/30 12:17:33;;;;;;;1.95;0.20;;;15.60;58.10;;;;;;4999242;28;20053;-78
2022/03/30 12:20:02;;;;;;;5.13;0.30;;;15.60;58.20;;;;;;4999576;28;20370;-78
2022/03/30 12:22:29;;;;;;;0.77;0.20;;;15.60;58.10;;;;;;4999254;28;20046;-78
2022/03/30 12:24:55;;;;;;;2.22;0.32;;;15.60;58.20;;;;;;4999223;28;20496;-79
2022/03/30 12:27:22;;;;;;;0.75;0.20;;;15.60;58.20;;;;;;5014591;28;20044;-79
2022/03/30 12:29:49;;;;;;;1.33;0.30;;;15.60;58.30;;;;;;5019070;28;20042;-79
2022/03/30 12:32:15;;;;;;;1.45;0.20;;;15.60;58.20;;;;;;5001705;28;20065;-78
2022/03/30 12:34:47;;;;;;;1.35;0.10;;;15.60;58.20;;;;;;5018711;28;20054;-78
2022/03/30 12:37:20;;;;;;;2.00;0.20;;;15.50;58.20;;;;;;5001312;28;20046;-80
2022/03/30 12:39:46;;;;;;;6.05;0.40;;;15.50;58.20;;;;;;5019038;28;20089;-77
2022/03/30 12:42:13;;;;;;;3.22;0.20;;;15.50;58.40;;;;;;5002051;28;20100;-78
2022/03/30 12:44:47;;;;;;;1.30;0.10;;;15.50;58.30;;;;;;5018938;28;20054;-78
2022/03/30 12:47:27;;;;;;;6.38;0.30;;;15.50;58.60;;;;;;5001073;28;20038;-77
2022/03/30 12:49:54;;;;;;;4.78;0.43;;;15.60;57.60;;;;;;5000981;28;20054;-76
2022/03/30 12:52:21;;;;;;;2.92;0.30;;;15.80;57.50;;;;;;5001108;28;20061;-79
2022/03/30 12:54:48;;;;;;;3.53;0.52;;;15.90;57.50;;;;;;5018571;28;20042;-77
2022/03/30 12:57:30;;;;;;;4.95;0.57;;;16.00;57.30;;;;;;4996640;28;20185;-78
2022/03/30 13:00:17;;;;;;;5.45;0.55;;;16.10;57.30;;;;;;4978559;28;20088;-78
2022/03/30 13:02:43;;;;;;;3.45;0.47;;;16.20;57.30;;;;;;4997766;28;20058;-78
2022/03/30 13:05:20;;;;;;;5.03;0.60;;;16.20;57.30;;;;;;4998951;28;20043;-78
2022/03/30 13:07:50;;;;;;;5.35;0.50;;;16.30;57.40;;;;;;4998510;28;20465;-79